Time;durP1;ratioP1;P1;durP2;ratioP2;P2;SDS_P1;SDS_P2;PMS_P1;PMS_P2;Temp;Humidity;BMP_temperature;BMP_pressure;BME280_temperature;BME280_humidity;BME280_pressure;Samples;Min_cycle;Max_cycle;Signal;HPM_P1;HPM_P2
2022/11/18 00:00:49;;;;;;;4.77;1.50;;;9.90;99.80;;;;;;4995575;28;20038;-81
2022/11/18 00:03:16;;;;;;;6.67;1.40;;;9.90;99.90;;;;;;4994496;28;20038;-81
2022/11/18 00:05:42;;;;;;;7.23;1.40;;;9.90;99.90;;;;;;4994443;28;20054;-81
2022/11/18 00:08:08;;;;;;;4.57;1.27;;;9.90;99.90;;;;;;4994686;28;20360;-80
2022/11/18 00:10:37;;;;;;;3.83;1.27;;;9.90;99.80;;;;;;4977821;28;20034;-81
2022/11/18 00:15:47;;;;;;;6.25;1.30;;;9.90;99.70;;;;;;4981021;28;20061;-81
2022/11/18 00:18:12;;;;;;;7.43;1.60;;;9.80;99.70;;;;;;5010382;28;20026;-81
2022/11/18 00:20:38;;;;;;;8.57;2.10;;;9.90;99.70;;;;;;5010746;28;20042;-84
2022/11/18 00:23:04;;;;;;;4.17;1.17;;;9.70;99.60;;;;;;4961893;28;20073;-83
2022/11/18 00:25:29;;;;;;;3.50;1.10;;;9.80;99.60;;;;;;4978179;28;20034;-81
2022/11/18 00:27:55;;;;;;;7.13;1.37;;;9.80;99.60;;;;;;4977898;28;20117;-81
2022/11/18 00:30:21;;;;;;;5.97;1.13;;;9.70;99.60;;;;;;4978027;28;20032;-82
2022/11/18 00:32:46;;;;;;;5.60;1.30;;;9.70;99.60;;;;;;4978054;28;20034;-82
2022/11/18 00:35:12;;;;;;;6.53;1.40;;;9.70;99.60;;;;;;4977665;28;20092;-82
2022/11/18 00:37:38;;;;;;;6.73;1.30;;;9.60;99.70;;;;;;4961811;28;20084;-82
2022/11/18 00:40:04;;;;;;;6.53;1.70;;;9.60;99.80;;;;;;4961606;28;20030;-81
2022/11/18 00:45:14;;;;;;;4.90;1.33;;;9.60;99.90;;;;;;4993974;28;20433;-82
2022/11/18 00:47:39;;;;;;;5.90;1.33;;;9.50;99.90;;;;;;4961345;28;20027;-82
2022/11/18 00:50:05;;;;;;;4.50;1.70;;;9.50;99.90;;;;;;4961687;28;20386;-82
2022/11/18 00:52:31;;;;;;;6.10;1.20;;;9.50;99.90;;;;;;4977393;28;20070;-82
2022/11/18 00:54:57;;;;;;;5.47;1.23;;;9.50;99.90;;;;;;4961400;28;20031;-82
2022/11/18 00:57:22;;;;;;;7.47;1.60;;;9.50;99.90;;;;;;4961127;28;20113;-82
2022/11/18 00:59:48;;;;;;;7.63;1.60;;;9.50;99.90;;;;;;4994926;28;20052;-82
2022/11/18 01:02:14;;;;;;;5.47;1.30;;;9.50;99.90;;;;;;4961203;28;20493;-82
2022/11/18 01:04:40;;;;;;;5.73;1.30;;;9.60;99.90;;;;;;4961519;28;20027;-81
2022/11/18 01:07:05;;;;;;;5.67;1.47;;;9.60;99.90;;;;;;4960050;28;20125;-81
2022/11/18 01:09:31;;;;;;;5.60;1.47;;;9.70;99.90;;;;;;4976187;28;20026;-81
2022/11/18 01:14:41;;;;;;;;;;;9.70;99.90;;;;;;4992830;28;20061;-81
2022/11/18 01:17:07;;;;;;;6.20;1.30;;;9.80;99.90;;;;;;4975740;28;20366;-81
2022/11/18 01:19:32;;;;;;;5.80;1.13;;;9.70;99.90;;;;;;4960495;28;20117;-81
2022/11/18 01:22:01;;;;;;;7.17;1.40;;;9.70;99.90;;;;;;4977659;28;20462;-83
2022/11/18 01:24:28;;;;;;;4.00;1.03;;;9.70;99.90;;;;;;4994628;28;20026;-83
2022/11/18 01:26:54;;;;;;;6.80;1.70;;;9.80;99.90;;;;;;4978295;28;20027;-82
2022/11/18 01:29:20;;;;;;;9.80;1.60;;;9.80;99.90;;;;;;4976366;28;20030;-82
2022/11/18 01:31:45;;;;;;;6.87;1.23;;;9.80;99.90;;;;;;4960334;28;20062;-82
2022/11/18 01:34:11;;;;;;;6.40;1.30;;;9.80;99.90;;;;;;4975824;28;20380;-82
2022/11/18 01:36:37;;;;;;;4.93;1.20;;;9.80;99.90;;;;;;5008665;28;20085;-82
2022/11/18 01:39:03;;;;;;;7.37;1.40;;;9.90;99.90;;;;;;5008424;28;20474;-82
2022/11/18 01:41:29;;;;;;;6.30;1.53;;;9.90;99.90;;;;;;4976123;28;20026;-81
2022/11/18 01:44:04;;;;;;;6.30;1.40;;;9.90;99.90;;;;;;4991972;28;20486;-81
2022/11/18 01:46:32;;;;;;;6.87;1.30;;;9.90;99.90;;;;;;4994134;28;20045;-82
2022/11/18 01:49:05;;;;;;;6.70;1.33;;;9.90;99.90;;;;;;4990858;28;20022;-82
2022/11/18 01:51:36;;;;;;;8.68;1.75;;;9.90;99.90;;;;;;4991823;28;20101;-82
2022/11/18 01:54:08;;;;;;;7.43;1.40;;;9.90;99.90;;;;;;5007568;28;20036;-83
2022/11/18 01:56:41;;;;;;;7.87;1.60;;;9.90;99.90;;;;;;4991871;28;20431;-82
2022/11/18 01:59:12;;;;;;;5.88;1.98;;;9.90;99.90;;;;;;4993202;28;20030;-82
2022/11/18 02:01:38;;;;;;;5.97;1.40;;;9.90;99.90;;;;;;4991605;28;20018;-82
2022/11/18 02:04:06;;;;;;;8.40;1.33;;;9.90;99.90;;;;;;5008024;28;20045;-82
2022/11/18 02:06:32;;;;;;;4.27;1.43;;;9.70;99.90;;;;;;4950292;28;1226906;-83
2022/11/18 02:08:58;;;;;;;5.70;1.50;;;9.80;99.90;;;;;;5008456;28;20038;-82
2022/11/18 02:14:09;;;;;;;5.80;1.55;;;9.90;99.90;;;;;;4998226;28;20153;-83
2022/11/18 02:17:03;;;;;;;5.43;1.10;;;9.80;99.90;;;;;;4995741;28;20029;-82
2022/11/18 02:19:37;;;;;;;10.10;2.10;;;9.90;99.90;;;;;;4995738;28;20026;-82
2022/11/18 02:22:27;;;;;;;6.07;1.63;;;9.80;99.90;;;;;;4995405;28;20030;-82
2022/11/18 02:24:53;;;;;;;4.60;1.40;;;9.80;99.90;;;;;;5012923;28;20026;-82
2022/11/18 02:27:37;;;;;;;6.03;1.30;;;9.90;99.90;;;;;;4995362;28;20398;-82
2022/11/18 02:30:08;;;;;;;4.03;1.40;;;9.90;99.90;;;;;;4998447;28;20037;-81
2022/11/18 02:32:53;;;;;;;5.73;1.43;;;9.90;99.90;;;;;;4999452;28;20480;-82
2022/11/18 02:35:28;;;;;;;6.30;1.50;;;9.90;99.90;;;;;;4998991;28;20741;-81
2022/11/18 02:38:09;;;;;;;4.93;1.53;;;9.90;99.90;;;;;;4999502;28;20026;-81
2022/11/18 02:40:49;;;;;;;8.27;2.27;;;9.90;99.90;;;;;;5016962;28;20022;-80
2022/11/18 02:43:21;;;;;;;10.07;1.90;;;10.00;99.90;;;;;;4999425;28;20033;-80
2022/11/18 02:45:52;;;;;;;4.20;1.37;;;9.90;99.90;;;;;;4999103;28;20037;-82
2022/11/18 02:48:19;;;;;;;3.77;1.40;;;10.00;99.90;;;;;;5017181;28;20018;-83
2022/11/18 02:50:47;;;;;;;11.80;1.87;;;10.00;99.90;;;;;;4999017;28;20041;-82
2022/11/18 02:53:17;;;;;;;6.23;1.27;;;10.00;99.90;;;;;;5017030;28;20037;-81
2022/11/18 02:55:44;;;;;;;6.90;1.70;;;10.00;99.90;;;;;;4999243;28;20153;-82
2022/11/18 02:58:11;;;;;;;5.97;1.30;;;10.00;99.90;;;;;;4966698;28;20060;-81
2022/11/18 03:00:37;;;;;;;7.07;1.67;;;10.00;99.90;;;;;;4999091;28;20037;-81
2022/11/18 03:03:28;;;;;;;11.50;2.13;;;10.00;99.90;;;;;;4982757;28;20033;-82
2022/11/18 03:06:06;;;;;;;4.87;1.33;;;10.10;99.90;;;;;;4995283;28;20498;-82
2022/11/18 03:08:38;;;;;;;5.77;1.27;;;10.10;99.90;;;;;;5012033;28;20045;-82
2022/11/18 03:11:22;;;;;;;4.70;1.13;;;10.10;99.90;;;;;;4995392;28;20045;-82
2022/11/18 03:14:21;;;;;;;3.72;1.25;;;10.10;99.90;;;;;;4995391;28;20030;-82
2022/11/18 03:16:56;;;;;;;6.47;1.50;;;10.10;99.90;;;;;;4995448;28;20390;-82
2022/11/18 03:19:58;;;;;;;4.57;1.33;;;10.10;99.90;;;;;;4996798;28;20130;-80
2022/11/18 03:22:39;;;;;;;4.60;1.10;;;10.10;99.90;;;;;;5011792;28;20027;-81
2022/11/18 03:25:33;;;;;;;8.47;1.50;;;10.10;99.90;;;;;;4995142;28;20478;-80
2022/11/18 03:28:08;;;;;;;6.50;1.70;;;10.10;99.90;;;;;;4989039;28;20042;-80
2022/11/18 03:30:38;;;;;;;7.80;1.37;;;10.10;99.90;;;;;;4995083;28;20018;-80
2022/11/18 03:33:13;;;;;;;5.87;1.20;;;10.10;99.90;;;;;;4995254;28;20102;-81
2022/11/18 03:35:44;;;;;;;4.87;1.43;;;10.10;99.90;;;;;;4995271;28;20471;-80
2022/11/18 03:38:17;;;;;;;6.67;2.30;;;10.20;99.90;;;;;;4996364;28;20097;-81
2022/11/18 03:40:49;;;;;;;6.50;1.83;;;10.20;99.90;;;;;;4994632;28;20052;-81
2022/11/18 03:43:20;;;;;;;4.07;1.20;;;10.20;99.90;;;;;;4994628;28;20356;-81
2022/11/18 03:45:53;;;;;;;6.63;1.60;;;10.10;99.90;;;;;;4996312;28;20026;-80
2022/11/18 03:48:24;;;;;;;5.43;1.63;;;10.20;99.90;;;;;;4995021;28;20116;-80
2022/11/18 03:50:59;;;;;;;5.67;1.77;;;10.20;99.90;;;;;;4994582;28;20030;-80
2022/11/18 03:53:27;;;;;;;6.97;1.63;;;10.20;99.90;;;;;;5011420;28;20014;-80
2022/11/18 03:56:01;;;;;;;6.03;1.50;;;10.20;99.90;;;;;;4994754;28;20105;-80
2022/11/18 03:59:00;;;;;;;7.13;1.95;;;10.20;99.90;;;;;;4996422;28;20033;-79
2022/11/18 04:01:55;;;;;;;6.70;1.83;;;10.20;99.90;;;;;;4991642;28;20509;-80
2022/11/18 04:04:23;;;;;;;6.70;1.43;;;10.20;99.90;;;;;;4994292;28;20038;-80
2022/11/18 04:06:55;;;;;;;4.97;1.30;;;10.20;99.90;;;;;;5009552;28;20108;-80
2022/11/18 04:09:25;;;;;;;8.30;1.73;;;10.20;99.90;;;;;;4997962;28;20034;-80
2022/11/18 04:12:01;;;;;;;4.83;1.30;;;10.20;99.90;;;;;;5014118;28;20508;-82
2022/11/18 04:14:32;;;;;;;7.27;1.40;;;10.20;99.90;;;;;;4997158;28;20041;-81
2022/11/18 04:16:57;;;;;;;3.93;1.40;;;10.20;99.90;;;;;;4997317;28;20029;-81
2022/11/18 04:19:23;;;;;;;6.43;1.47;;;10.20;99.90;;;;;;5013741;28;20026;-81
2022/11/18 04:21:49;;;;;;;4.37;1.40;;;10.20;99.90;;;;;;4981369;28;20032;-82
2022/11/18 04:24:15;;;;;;;9.00;1.50;;;10.20;99.90;;;;;;4981258;28;20485;-81
2022/11/18 04:26:41;;;;;;;8.23;1.50;;;10.20;99.90;;;;;;5014706;28;20466;-81
2022/11/18 04:29:07;;;;;;;6.90;2.23;;;10.30;99.90;;;;;;4981165;28;20029;-81
2022/11/18 04:31:32;;;;;;;7.17;2.23;;;10.30;99.90;;;;;;4980719;28;20037;-82
2022/11/18 04:33:58;;;;;;;8.27;1.47;;;10.20;99.90;;;;;;4980844;28;20037;-81
2022/11/18 04:36:24;;;;;;;3.70;1.20;;;10.30;99.90;;;;;;4981229;28;20084;-82
2022/11/18 04:38:49;;;;;;;7.47;1.70;;;10.20;99.90;;;;;;4981156;28;20117;-82
2022/11/18 04:41:15;;;;;;;4.00;1.57;;;10.30;99.90;;;;;;4981124;28;20038;-82
2022/11/18 04:43:41;;;;;;;5.07;1.40;;;10.30;99.90;;;;;;4980607;28;20033;-82
2022/11/18 04:46:07;;;;;;;3.93;1.37;;;10.30;99.90;;;;;;4997105;28;20021;-82
2022/11/18 04:48:33;;;;;;;4.37;1.40;;;10.30;99.90;;;;;;4980531;28;20034;-82
2022/11/18 04:51:04;;;;;;;6.83;1.80;;;10.30;99.90;;;;;;4996599;28;20037;-82
2022/11/18 04:53:30;;;;;;;6.77;2.00;;;10.20;99.90;;;;;;4964320;28;20490;-82
2022/11/18 04:56:02;;;;;;;3.40;1.20;;;10.30;99.90;;;;;;4980931;28;20045;-82
2022/11/18 04:58:28;;;;;;;6.13;1.53;;;10.20;99.90;;;;;;4998161;28;20119;-82
2022/11/18 05:00:54;;;;;;;5.03;1.50;;;10.20;99.90;;;;;;4964599;28;20506;-81
2022/11/18 05:03:19;;;;;;;8.97;1.53;;;10.20;99.90;;;;;;4964358;28;20080;-81
2022/11/18 05:05:45;;;;;;;4.53;1.70;;;10.20;99.90;;;;;;4979917;28;20140;-81
2022/11/18 05:08:10;;;;;;;8.10;1.83;;;10.20;99.90;;;;;;4980813;28;20088;-82
2022/11/18 05:10:37;;;;;;;6.60;1.80;;;10.10;99.90;;;;;;4964532;28;20501;-82
2022/11/18 05:13:03;;;;;;;4.47;1.60;;;10.10;99.90;;;;;;4996860;28;20022;-82
2022/11/18 05:15:29;;;;;;;6.20;1.83;;;10.10;99.90;;;;;;4997065;28;20120;-82
2022/11/18 05:17:54;;;;;;;4.47;1.30;;;10.10;99.90;;;;;;4980589;28;20036;-83
2022/11/18 05:20:20;;;;;;;4.97;1.70;;;10.10;99.90;;;;;;5014400;28;20466;-83
2022/11/18 05:22:46;;;;;;;5.07;1.27;;;10.10;99.90;;;;;;4996593;28;20022;-83
2022/11/18 05:25:11;;;;;;;7.10;1.70;;;10.10;99.90;;;;;;4980254;28;20394;-82
2022/11/18 05:27:37;;;;;;;4.73;1.30;;;10.10;99.90;;;;;;5012792;28;20083;-82
2022/11/18 05:30:03;;;;;;;10.27;2.30;;;10.10;99.90;;;;;;4980145;28;20474;-83
2022/11/18 05:32:29;;;;;;;8.00;1.53;;;10.10;99.90;;;;;;4979709;28;20509;-82
2022/11/18 05:34:55;;;;;;;9.67;1.83;;;10.10;99.90;;;;;;4979972;28;20065;-83
2022/11/18 05:37:20;;;;;;;6.83;1.80;;;10.10;99.90;;;;;;4979876;28;20030;-82
2022/11/18 05:39:46;;;;;;;4.33;1.53;;;10.10;99.90;;;;;;4996291;28;20385;-82
2022/11/18 05:44:55;;;;;;;7.70;1.73;;;10.10;99.90;;;;;;5018307;28;20044;-81
2022/11/18 05:47:23;;;;;;;8.80;1.50;;;10.00;99.90;;;;;;5015840;28;20029;-81
2022/11/18 05:49:49;;;;;;;6.83;2.13;;;10.00;99.90;;;;;;5012644;28;20034;-81
2022/11/18 05:52:15;;;;;;;6.70;1.97;;;10.10;99.90;;;;;;4980517;28;20474;-81
2022/11/18 05:54:48;;;;;;;5.20;1.77;;;10.00;99.90;;;;;;4991739;28;20084;-81
2022/11/18 05:57:14;;;;;;;7.10;1.90;;;10.00;99.90;;;;;;5011292;28;20022;-82
2022/11/18 05:59:40;;;;;;;6.07;1.50;;;10.00;99.90;;;;;;4981027;28;20040;-82
2022/11/18 06:02:18;;;;;;;7.73;1.57;;;9.90;99.90;;;;;;4998878;28;20033;-82
2022/11/18 06:04:52;;;;;;;6.77;1.87;;;9.90;99.90;;;;;;4994260;28;20116;-82
2022/11/18 06:07:25;;;;;;;9.10;1.73;;;9.90;99.90;;;;;;4994497;28;20046;-82
2022/11/18 06:09:55;;;;;;;6.70;1.83;;;9.80;99.90;;;;;;5013758;28;20026;-82
2022/11/18 06:12:26;;;;;;;8.53;1.50;;;9.80;99.90;;;;;;4995392;28;20046;-82
2022/11/18 06:14:59;;;;;;;7.40;2.67;;;9.70;99.90;;;;;;4995410;28;20093;-83
2022/11/18 06:17:33;;;;;;;10.10;1.88;;;9.70;99.90;;;;;;5012959;28;20056;-82
2022/11/18 06:19:59;;;;;;;4.38;1.40;;;9.70;99.90;;;;;;4995397;28;20030;-82
2022/11/18 06:22:25;;;;;;;10.53;1.90;;;9.70;99.90;;;;;;4979662;28;20034;-82
2022/11/18 06:24:50;;;;;;;5.53;2.70;;;9.60;99.90;;;;;;4979242;28;20073;-82
2022/11/18 06:27:17;;;;;;;8.00;2.60;;;9.60;99.90;;;;;;4979210;28;20500;-82
2022/11/18 06:29:43;;;;;;;4.87;1.37;;;9.50;99.90;;;;;;4978860;28;20022;-83
2022/11/18 06:32:09;;;;;;;7.17;2.60;;;9.50;99.90;;;;;;4979463;28;20099;-83
2022/11/18 06:34:35;;;;;;;8.33;2.10;;;9.40;99.90;;;;;;4979631;28;20037;-82
2022/11/18 06:37:22;;;;;;;6.27;1.90;;;9.40;99.90;;;;;;4962853;28;20038;-81
2022/11/18 06:39:48;;;;;;;7.87;2.37;;;9.40;99.90;;;;;;4990549;28;20132;-81
2022/11/18 06:43:37;;;;;;;6.63;2.03;;;9.40;99.90;;;;;;5011333;28;20581;-83
2022/11/18 06:45:00;;;;;;;6.77;2.17;;;9.40;99.90;;;;;;5011491;28;20037;-82
2022/11/18 06:47:26;;;;;;;6.10;2.10;;;9.40;99.90;;;;;;4995087;28;20022;-82
2022/11/18 06:49:52;;;;;;;7.50;2.30;;;9.30;99.90;;;;;;4995499;28;20482;-81
2022/11/18 06:52:18;;;;;;;7.27;2.43;;;9.30;99.90;;;;;;5011769;28;20080;-82
2022/11/18 06:54:43;;;;;;;7.40;2.43;;;9.30;99.90;;;;;;4995628;28;20446;-82
2022/11/18 06:57:09;;;;;;;7.63;2.30;;;9.30;99.90;;;;;;4996601;28;20463;-82
2022/11/18 06:59:34;;;;;;;8.03;2.10;;;9.30;99.90;;;;;;5029407;28;20045;-83
2022/11/18 07:02:00;;;;;;;6.67;2.17;;;9.20;99.90;;;;;;5010710;28;20037;-82
2022/11/18 07:04:26;;;;;;;6.07;2.20;;;9.20;99.90;;;;;;4986712;28;20029;-82
2022/11/18 07:06:51;;;;;;;6.10;1.97;;;9.20;99.90;;;;;;4981512;28;20508;-88
2022/11/18 07:09:17;;;;;;;8.97;2.33;;;9.20;99.90;;;;;;4979077;28;20385;-82
2022/11/18 07:11:43;;;;;;;8.00;2.13;;;9.20;99.90;;;;;;4997782;28;20549;-82
2022/11/18 07:14:09;;;;;;;7.73;2.60;;;9.10;99.90;;;;;;5014174;28;20017;-82
2022/11/18 07:16:35;;;;;;;7.23;2.70;;;9.10;99.90;;;;;;4983868;28;20025;-82
2022/11/18 07:19:06;;;;;;;7.67;2.03;;;9.10;99.90;;;;;;4985079;28;20052;-81
2022/11/18 07:21:32;;;;;;;5.80;2.17;;;9.10;99.90;;;;;;5031487;28;20048;-81
2022/11/18 07:23:58;;;;;;;10.20;2.63;;;9.10;99.90;;;;;;5001611;28;20065;-81
2022/11/18 07:26:23;;;;;;;4.97;2.30;;;9.10;99.90;;;;;;4984925;28;20026;-81
2022/11/18 07:28:49;;;;;;;5.23;2.37;;;9.10;99.90;;;;;;5001669;28;20037;-81
2022/11/18 07:31:17;;;;;;;6.43;3.30;;;9.10;99.90;;;;;;5001578;28;20588;-81
2022/11/18 07:33:44;;;;;;;12.50;2.60;;;9.10;99.90;;;;;;5020610;28;20025;-82
2022/11/18 07:36:12;;;;;;;13.13;3.20;;;9.00;99.90;;;;;;5037770;28;20037;-81
2022/11/18 07:38:38;;;;;;;6.63;2.30;;;9.10;99.90;;;;;;5037710;28;20021;-81
2022/11/18 07:41:13;;;;;;;8.13;2.77;;;9.10;99.90;;;;;;5037605;28;20032;-82
2022/11/18 07:43:39;;;;;;;7.23;2.57;;;9.10;99.90;;;;;;4998396;28;20032;-81
2022/11/18 07:46:22;;;;;;;6.70;2.73;;;9.10;99.90;;;;;;5032008;28;20071;-82
2022/11/18 07:48:49;;;;;;;7.03;2.53;;;9.10;99.90;;;;;;5037661;28;20159;-82
2022/11/18 07:51:17;;;;;;;6.53;2.27;;;9.10;99.90;;;;;;5054644;28;20037;-82
2022/11/18 07:53:43;;;;;;;7.73;2.33;;;9.20;99.90;;;;;;5038239;28;20068;-82
2022/11/18 07:56:10;;;;;;;5.37;2.10;;;9.10;99.90;;;;;;5037585;28;20048;-82
2022/11/18 07:58:36;;;;;;;5.47;2.57;;;9.10;99.90;;;;;;5055212;28;20017;-81
2022/11/18 08:01:16;;;;;;;7.73;2.50;;;9.20;99.90;;;;;;5026814;28;20165;-82
2022/11/18 08:03:43;;;;;;;10.17;3.30;;;9.20;99.90;;;;;;5000507;28;20393;-82
2022/11/18 08:06:10;;;;;;;8.67;2.30;;;9.20;99.90;;;;;;5028445;28;20056;-82
2022/11/18 08:08:36;;;;;;;5.43;2.70;;;9.20;99.90;;;;;;5013744;28;20034;-81
2022/11/18 08:11:05;;;;;;;10.90;3.20;;;9.30;99.90;;;;;;5014281;28;20084;-81
2022/11/18 08:13:31;;;;;;;8.83;3.17;;;9.30;99.90;;;;;;5015046;28;20069;-81
2022/11/18 08:15:57;;;;;;;8.57;2.53;;;9.30;99.90;;;;;;4998047;28;20088;-82
2022/11/18 08:18:23;;;;;;;7.37;3.50;;;9.30;99.90;;;;;;5013786;28;20429;-82
2022/11/18 08:20:49;;;;;;;9.97;3.60;;;9.40;99.90;;;;;;5013785;28;20470;-82
2022/11/18 08:23:16;;;;;;;8.60;3.23;;;9.40;99.90;;;;;;5013655;28;20032;-83
2022/11/18 08:25:44;;;;;;;6.17;2.70;;;9.40;99.90;;;;;;5013646;28;20026;-83
2022/11/18 08:28:10;;;;;;;9.03;3.13;;;9.40;99.90;;;;;;5013060;28;20381;-82
2022/11/18 08:30:36;;;;;;;8.30;3.47;;;9.50;99.90;;;;;;5013759;28;20125;-82
2022/11/18 08:33:02;;;;;;;10.13;3.53;;;9.50;99.90;;;;;;5014102;28;20105;-83
2022/11/18 08:35:29;;;;;;;9.57;3.70;;;9.50;99.90;;;;;;5013551;28;20029;-82
2022/11/18 08:37:55;;;;;;;8.03;2.97;;;9.50;99.90;;;;;;5013766;28;20014;-81
2022/11/18 08:40:21;;;;;;;5.30;2.80;;;9.60;99.90;;;;;;4997423;28;20436;-81
2022/11/18 08:42:46;;;;;;;7.07;3.07;;;9.60;99.90;;;;;;5013274;28;20029;-82
2022/11/18 08:45:12;;;;;;;8.77;2.83;;;9.60;99.90;;;;;;5013429;28;20164;-82
2022/11/18 08:47:38;;;;;;;7.23;3.00;;;9.60;99.90;;;;;;5014733;28;20081;-82
2022/11/18 08:50:06;;;;;;;9.13;3.00;;;9.70;99.90;;;;;;4996903;28;20386;-82
2022/11/18 08:52:32;;;;;;;7.23;3.33;;;9.70;99.90;;;;;;5013181;28;20061;-82
2022/11/18 08:54:58;;;;;;;10.60;4.27;;;9.80;99.90;;;;;;4997322;28;20471;-82
2022/11/18 08:57:23;;;;;;;7.93;3.10;;;9.80;99.90;;;;;;5017802;28;20029;-82
2022/11/18 08:59:49;;;;;;;5.83;2.87;;;9.90;99.90;;;;;;5008943;28;20030;-83
2022/11/18 09:02:20;;;;;;;9.07;2.90;;;9.90;99.90;;;;;;5010738;28;20025;-82
2022/11/18 09:04:47;;;;;;;7.87;2.70;;;10.00;99.90;;;;;;5026489;28;20485;-82
2022/11/18 09:07:13;;;;;;;7.73;2.90;;;10.00;99.90;;;;;;5015062;28;20053;-82
2022/11/18 09:09:39;;;;;;;6.33;2.70;;;10.10;99.90;;;;;;5014576;28;20116;-82
2022/11/18 09:12:05;;;;;;;8.67;2.47;;;10.10;99.90;;;;;;4990127;28;20494;-82
2022/11/18 09:14:31;;;;;;;7.70;2.93;;;10.20;99.90;;;;;;4997660;28;20030;-82
2022/11/18 09:16:56;;;;;;;9.63;2.67;;;10.30;99.90;;;;;;4998954;28;20385;-82
2022/11/18 09:19:22;;;;;;;6.27;2.57;;;10.40;99.90;;;;;;5014758;28;20048;-82
2022/11/18 09:21:48;;;;;;;5.85;2.28;;;10.50;99.90;;;;;;5014391;28;20034;-83
2022/11/18 09:24:14;;;;;;;5.93;2.10;;;10.80;99.90;;;;;;4998537;28;20023;-82
2022/11/18 09:26:40;;;;;;;5.97;1.90;;;10.90;99.90;;;;;;4994290;28;20033;-82
2022/11/18 09:29:05;;;;;;;5.78;1.67;;;11.10;99.90;;;;;;4997523;28;20030;-83
2022/11/18 09:31:31;;;;;;;3.88;1.33;;;11.50;99.90;;;;;;4998161;28;20474;-83
2022/11/18 09:34:00;;;;;;;3.10;1.38;;;11.90;99.90;;;;;;4996457;28;20121;-83
2022/11/18 09:36:26;;;;;;;7.70;1.88;;;12.50;99.90;;;;;;4998250;28;20060;-83
2022/11/18 09:38:52;;;;;;;3.95;1.30;;;13.00;99.90;;;;;;4993369;28;20419;-82
2022/11/18 09:41:36;;;;;;;9.15;1.55;;;13.60;99.90;;;;;;5012192;28;20037;-81
2022/11/18 09:44:09;;;;;;;4.45;1.25;;;14.20;99.90;;;;;;5015085;28;20030;-84
2022/11/18 09:46:47;;;;;;;3.97;1.15;;;14.90;99.90;;;;;;5009668;28;20037;-84
2022/11/18 09:49:36;;;;;;;3.85;1.17;;;15.30;99.90;;;;;;4997537;28;20557;-83
2022/11/18 09:52:06;;;;;;;3.42;1.10;;;15.70;99.70;;;;;;5001304;28;20054;-83
2022/11/18 09:54:35;;;;;;;4.63;1.13;;;15.80;99.30;;;;;;4996098;28;20054;-83
2022/11/18 09:57:01;;;;;;;4.55;1.02;;;16.20;98.00;;;;;;4993761;28;20041;-83
2022/11/18 09:59:31;;;;;;;5.43;1.02;;;16.50;96.50;;;;;;4995020;28;20026;-85
2022/11/18 10:02:25;;;;;;;5.38;1.10;;;16.60;95.70;;;;;;5008569;28;20031;-84
2022/11/18 10:04:53;;;;;;;3.63;0.98;;;16.90;92.80;;;;;;4969149;28;20494;-84
2022/11/18 10:07:25;;;;;;;5.97;1.48;;;17.00;92.60;;;;;;4991231;28;20097;-84
2022/11/18 10:09:55;;;;;;;5.43;1.30;;;17.40;91.70;;;;;;4992781;28;20394;-84
2022/11/18 10:12:47;;;;;;;6.05;1.40;;;17.70;90.70;;;;;;4992586;28;20065;-84
2022/11/18 10:15:45;;;;;;;3.97;0.90;;;18.10;88.20;;;;;;4992382;28;20096;-83
2022/11/18 10:18:41;;;;;;;5.03;1.42;;;18.10;86.30;;;;;;5002814;28;20033;-85
2022/11/18 10:21:31;;;;;;;3.78;1.38;;;18.20;85.90;;;;;;5017310;28;20060;-84
2022/11/18 10:24:20;;;;;;;4.75;0.93;;;18.30;83.90;;;;;;5012036;28;20022;-84
2022/11/18 10:26:46;;;;;;;5.18;1.17;;;18.40;82.60;;;;;;5029016;28;20028;-84
2022/11/18 10:29:12;;;;;;;6.15;1.17;;;18.40;81.30;;;;;;5012283;28;20381;-84
2022/11/18 10:31:51;;;;;;;8.02;1.60;;;18.30;80.20;;;;;;5012041;28;20054;-84
2022/11/18 10:34:18;;;;;;;4.97;1.10;;;18.20;78.00;;;;;;5012427;28;20022;-84
2022/11/18 10:37:04;;;;;;;4.05;0.93;;;18.10;77.60;;;;;;5011721;28;20038;-84
2022/11/18 10:39:30;;;;;;;4.03;1.08;;;17.90;76.50;;;;;;5007190;28;20014;-84
2022/11/18 10:42:01;;;;;;;4.00;1.10;;;17.90;75.50;;;;;;5010958;28;20052;-83
2022/11/18 10:44:47;;;;;;;3.00;0.82;;;17.90;75.70;;;;;;5012649;28;20025;-83
2022/11/18 10:47:31;;;;;;;3.03;0.85;;;18.00;75.70;;;;;;5021736;28;20108;-83
2022/11/18 10:50:07;;;;;;;5.10;1.05;;;17.90;74.60;;;;;;5014543;28;20058;-83
2022/11/18 10:52:51;;;;;;;4.60;1.30;;;17.70;74.20;;;;;;5017540;28;20077;-84
2022/11/18 10:55:20;;;;;;;4.18;1.55;;;17.50;73.50;;;;;;5017481;28;20093;-84
2022/11/18 10:57:47;;;;;;;6.00;1.30;;;17.40;73.30;;;;;;5016489;28;20109;-83
2022/11/18 11:00:32;;;;;;;5.25;1.42;;;17.30;72.90;;;;;;4991601;28;20025;-84
2022/11/18 11:02:57;;;;;;;4.95;1.38;;;17.20;73.40;;;;;;5017720;28;20156;-85
2022/11/18 11:05:25;;;;;;;5.18;1.40;;;17.30;74.40;;;;;;5009760;28;20105;-85
2022/11/18 11:08:03;;;;;;;5.38;1.23;;;17.50;75.00;;;;;;4999330;28;20048;-85
2022/11/18 11:10:28;;;;;;;8.45;1.13;;;17.80;74.50;;;;;;5014823;28;20481;-84
2022/11/18 11:13:02;;;;;;;4.45;1.48;;;18.00;74.00;;;;;;4998590;28;20164;-83
2022/11/18 11:15:40;;;;;;;3.83;1.30;;;17.90;71.70;;;;;;5015216;28;20522;-84
2022/11/18 11:21:08;;;;;;;6.80;1.38;;;17.30;70.50;;;;;;5022754;28;20053;-84
2022/11/18 11:23:34;;;;;;;5.50;1.48;;;17.00;71.30;;;;;;5015482;28;20017;-83
2022/11/18 11:26:09;;;;;;;5.13;1.80;;;16.90;71.60;;;;;;4988139;28;20029;-84
2022/11/18 11:28:43;;;;;;;4.88;1.17;;;16.80;71.80;;;;;;5024114;28;20033;-83
2022/11/18 11:31:14;;;;;;;5.65;1.30;;;16.70;72.50;;;;;;5025954;28;20386;-84
2022/11/18 11:34:14;;;;;;;6.50;1.40;;;16.70;72.50;;;;;;5013254;28;20025;-84
2022/11/18 11:37:03;;;;;;;6.93;1.65;;;16.60;72.60;;;;;;5011641;28;20038;-84
2022/11/18 11:39:37;;;;;;;6.13;1.77;;;16.50;72.90;;;;;;5014979;28;20439;-84
2022/11/18 11:42:30;;;;;;;8.68;1.35;;;16.40;73.50;;;;;;5014399;28;20428;-84
2022/11/18 11:45:32;;;;;;;6.22;1.65;;;16.40;72.90;;;;;;5016041;28;20019;-84
2022/11/18 11:48:17;;;;;;;6.15;1.50;;;16.20;72.20;;;;;;4981725;28;20407;-84
2022/11/18 11:50:54;;;;;;;7.32;1.65;;;16.00;72.40;;;;;;5014086;28;20064;-84
2022/11/18 11:53:30;;;;;;;9.20;1.60;;;15.80;73.10;;;;;;5016739;28;20025;-84
2022/11/18 11:56:14;;;;;;;4.15;1.17;;;15.90;73.80;;;;;;5024666;28;20025;-84
2022/11/18 11:59:33;;;;;;;3.53;1.00;;;15.90;73.60;;;;;;5012727;28;20058;-84
2022/11/18 12:02:17;;;;;;;5.95;1.60;;;15.80;73.50;;;;;;4926759;29;20049;-84
2022/11/18 12:04:56;;;;;;;3.92;1.42;;;15.70;73.70;;;;;;5014742;28;20037;-84
2022/11/18 12:07:29;;;;;;;6.85;1.88;;;15.60;73.80;;;;;;5019861;28;20046;-83
2022/11/18 12:10:07;;;;;;;5.18;1.15;;;15.40;74.00;;;;;;5025511;28;20053;-84
2022/11/18 12:12:42;;;;;;;5.45;1.52;;;15.20;74.50;;;;;;5021614;28;20514;-82
2022/11/18 12:15:18;;;;;;;7.60;2.00;;;15.10;74.80;;;;;;5022604;28;20152;-84
2022/11/18 12:18:07;;;;;;;5.85;1.70;;;14.90;75.20;;;;;;5023521;28;20488;-83
2022/11/18 12:20:50;;;;;;;4.95;1.50;;;14.80;75.60;;;;;;5021951;28;20497;-84
2022/11/18 12:23:27;;;;;;;8.63;1.90;;;14.70;76.10;;;;;;4997882;28;20378;-84
2022/11/18 12:25:59;;;;;;;5.82;2.10;;;14.60;76.60;;;;;;4998282;28;20161;-83
2022/11/18 12:28:36;;;;;;;10.18;1.80;;;14.60;77.00;;;;;;5015705;28;20018;-84
2022/11/18 12:31:17;;;;;;;7.88;2.00;;;14.60;77.10;;;;;;5015951;28;20477;-88
2022/11/18 12:33:50;;;;;;;9.15;2.03;;;14.50;77.20;;;;;;5014933;28;20037;-88
2022/11/18 12:36:36;;;;;;;5.63;1.33;;;14.30;77.50;;;;;;5014444;28;20026;-87
2022/11/18 12:39:24;;;;;;;6.97;1.40;;;14.20;78.00;;;;;;5014366;28;20029;-86
2022/11/18 12:44:34;;;;;;;7.78;2.00;;;14.00;78.70;;;;;;5016952;28;20037;-88
2022/11/18 12:47:00;;;;;;;6.35;2.28;;;14.00;78.70;;;;;;4999251;28;20375;-87
2022/11/18 12:49:26;;;;;;;5.60;1.92;;;14.00;79.10;;;;;;4998087;28;20471;-83
2022/11/18 12:51:57;;;;;;;10.10;2.42;;;14.00;79.40;;;;;;5014163;28;20049;-82
2022/11/18 12:54:28;;;;;;;5.65;1.92;;;13.90;79.50;;;;;;4998292;28;20037;-83
2022/11/18 12:56:58;;;;;;;5.65;1.73;;;13.90;79.70;;;;;;5013614;28;20025;-84
2022/11/18 12:59:34;;;;;;;8.15;1.95;;;13.80;80.00;;;;;;5015227;28;20390;-82
2022/11/18 13:02:15;;;;;;;7.15;1.83;;;13.80;80.30;;;;;;5020687;28;20036;-83
2022/11/18 13:04:41;;;;;;;5.90;1.80;;;13.70;80.40;;;;;;5016296;28;20065;-83
2022/11/18 13:09:57;;;;;;;6.18;1.85;;;13.40;81.00;;;;;;5016467;28;20109;-83
2022/11/18 13:12:26;;;;;;;7.22;1.88;;;13.30;81.30;;;;;;5012422;28;20049;-82
2022/11/18 13:18:18;;;;;;;9.43;1.90;;;13.20;82.10;;;;;;5001138;28;20397;-83
2022/11/18 13:20:57;;;;;;;4.22;1.38;;;13.10;82.40;;;;;;4995036;28;20092;-83
2022/11/18 13:26:28;;;;;;;3.58;1.67;;;13.10;82.90;;;;;;5024875;28;20095;-82
2022/11/18 13:29:16;;;;;;;11.82;1.95;;;13.00;83.60;;;;;;5033666;28;20021;-83
2022/11/18 13:31:54;;;;;;;5.53;1.65;;;13.00;83.30;;;;;;5032338;28;20125;-83
2022/11/18 13:34:26;;;;;;;7.05;1.65;;;13.00;83.50;;;;;;5028783;28;20022;-83
2022/11/18 13:36:54;;;;;;;5.70;1.30;;;13.10;84.00;;;;;;5014291;28;20080;-83
2022/11/18 13:39:42;;;;;;;10.02;1.73;;;13.60;86.40;;;;;;5013819;28;20026;-84